Terminal Aerodrome Forecast
Issued by NWS Sterling, VA

Current Version | Previous Version | Text Only | Print | Product List | Glossary Off
Versions: 1 2 3 4 5 6 7 8 9 10 11 12 13 14 15

000
FTUS41 KLWX 232300
TAFMRB
TAF
KMRB 232331Z 2400/2424 14008KT P6SM -RA OVC080 WS020/17035KT
     FM240500 15011KT 5SM RA OVC008 WS020/16045KT
     FM240900 18009KT 3SM -RA OVC008 WS020/20040KT
     FM241100 18007KT P6SM BKN008 WS020/20040KT
     FM241400 19010KT P6SM BKN035
     FM241700 20015G25KT P6SM SCT060=

USA.gov is the U.S. government's official web portal to all federal, state and local government web resources and services.